CheckWX is a tool to help pilots better visualize weather data.  It is not intended as a substitute for an official pre-flight weather briefing.

17:45:41 UTC

CYYL METAR
Lynn Lake Airport
Lynn Lake, Canada
Current

5 hours ago

CYYL 211300Z AUTO 31005KT 9SM CLR 17/12 A3011 RMK SLP203 DENSITY ALT 1500FT
Observed
Jul-21 @ 13:00 UTC
Wind
  • 310° at 5 KTS
Visibility
9 SM
Flight Rules
VFR
Cloud Levels
  • Clear skies
Temperature
17°C / 63°F
Dewpoint
12°C / 54°F
Humidity
73%
Altimeter
30.11" Hg
Pressure
1019.62 hPa
Previous

6 hours ago

CYYL 211200Z AUTO 30005KT 9SM CLR 15/11 A3009 RMK SLP199 DENSITY ALT 1200FT
Observed
Jul-21 @ 12:00 UTC
Wind
  • 300° at 5 KTS
Visibility
9 SM
Flight Rules
VFR
Cloud Levels
  • Clear skies
Temperature
15°C / 59°F
Dewpoint
11°C / 52°F
Humidity
77%
Altimeter
30.09" Hg
Pressure
1018.92 hPa
Previous

7 hours ago

CYYL 211100Z AUTO 29006KT 9SM CLR 14/10 A3008 RMK SLP197
Observed
Jul-21 @ 11:00 UTC
Wind
  • 290° at 6 KTS
Visibility
9 SM
Flight Rules
VFR
Cloud Levels
  • Clear skies
Temperature
14°C / 57°F
Dewpoint
10°C / 50°F
Humidity
77%
Altimeter
30.08" Hg
Pressure
1018.62 hPa